sensor_id;sensor_type;location;lat;lon;timestamp;P1;durP1;ratioP1;P2;durP2;ratioP2
18473;SDS011;30265;52.408;13.500;2022-11-15T00:06:02;160.00;;;39.30;;
18473;SDS011;30265;52.408;13.500;2022-11-15T00:16:43;142.98;;;38.30;;
18473;SDS011;30265;52.408;13.500;2022-11-15T00:27:25;147.60;;;40.92;;
18473;SDS011;30265;52.408;13.500;2022-11-15T00:38:06;139.60;;;36.40;;
18473;SDS011;30265;52.408;13.500;2022-11-15T00:48:49;133.90;;;36.25;;
18473;SDS011;30265;52.408;13.500;2022-11-15T00:59:29;134.52;;;34.33;;
18473;SDS011;30265;52.408;13.500;2022-11-15T01:10:11;125.15;;;32.80;;
18473;SDS011;30265;52.408;13.500;2022-11-15T01:20:52;125.72;;;36.70;;
18473;SDS011;30265;52.408;13.500;2022-11-15T01:31:34;121.47;;;31.80;;
18473;SDS011;30265;52.408;13.500;2022-11-15T01:42:14;148.60;;;39.83;;
18473;SDS011;30265;52.408;13.500;2022-11-15T01:52:56;128.82;;;34.65;;
18473;SDS011;30265;52.408;13.500;2022-11-15T02:03:38;131.85;;;37.47;;
18473;SDS011;30265;52.408;13.500;2022-11-15T02:14:24;134.03;;;40.47;;
18473;SDS011;30265;52.408;13.500;2022-11-15T02:25:15;148.32;;;37.80;;
18473;SDS011;30265;52.408;13.500;2022-11-15T02:36:10;150.57;;;41.63;;
18473;SDS011;30265;52.408;13.500;2022-11-15T02:46:55;153.50;;;37.70;;
18473;SDS011;30265;52.408;13.500;2022-11-15T02:57:57;148.02;;;37.88;;
18473;SDS011;30265;52.408;13.500;2022-11-15T03:09:04;136.38;;;36.33;;
18473;SDS011;30265;52.408;13.500;2022-11-15T03:19:51;157.07;;;38.75;;
18473;SDS011;30265;52.408;13.500;2022-11-15T03:30:34;150.02;;;37.60;;
18473;SDS011;30265;52.408;13.500;2022-11-15T03:41:20;157.45;;;40.50;;
18473;SDS011;30265;52.408;13.500;2022-11-15T03:52:04;154.55;;;39.97;;
18473;SDS011;30265;52.408;13.500;2022-11-15T04:02:47;145.88;;;39.08;;
18473;SDS011;30265;52.408;13.500;2022-11-15T04:13:27;153.98;;;40.53;;
18473;SDS011;30265;52.408;13.500;2022-11-15T04:24:10;156.45;;;39.13;;
18473;SDS011;30265;52.408;13.500;2022-11-15T04:34:53;140.55;;;33.65;;
18473;SDS011;30265;52.408;13.500;2022-11-15T04:45:35;158.77;;;34.65;;
18473;SDS011;30265;52.408;13.500;2022-11-15T04:56:16;144.85;;;36.78;;
18473;SDS011;30265;52.408;13.500;2022-11-15T05:17:21;133.77;;;36.22;;
18473;SDS011;30265;52.408;13.500;2022-11-15T05:28:03;144.93;;;38.35;;
18473;SDS011;30265;52.408;13.500;2022-11-15T05:38:46;165.32;;;39.80;;
18473;SDS011;30265;52.408;13.500;2022-11-15T05:49:28;157.68;;;35.60;;
18473;SDS011;30265;52.408;13.500;2022-11-15T06:00:13;134.38;;;37.25;;
18473;SDS011;30265;52.408;13.500;2022-11-15T06:10:54;133.73;;;36.08;;
18473;SDS011;30265;52.408;13.500;2022-11-15T06:21:36;163.18;;;38.00;;
18473;SDS011;30265;52.408;13.500;2022-11-15T06:32:18;146.88;;;37.20;;
18473;SDS011;30265;52.408;13.500;2022-11-15T06:43:01;164.50;;;40.15;;
18473;SDS011;30265;52.408;13.500;2022-11-15T06:53:42;173.82;;;38.13;;
18473;SDS011;30265;52.408;13.500;2022-11-15T07:04:26;151.15;;;36.97;;
18473;SDS011;30265;52.408;13.500;2022-11-15T07:15:07;157.48;;;39.25;;
18473;SDS011;30265;52.408;13.500;2022-11-15T07:25:49;143.95;;;40.40;;
18473;SDS011;30265;52.408;13.500;2022-11-15T07:36:30;147.27;;;37.78;;
18473;SDS011;30265;52.408;13.500;2022-11-15T07:47:12;142.50;;;40.95;;
18473;SDS011;30265;52.408;13.500;2022-11-15T07:57:53;127.70;;;34.17;;
18473;SDS011;30265;52.408;13.500;2022-11-15T08:08:42;132.82;;;36.75;;
18473;SDS011;30265;52.408;13.500;2022-11-15T08:19:22;140.70;;;37.63;;
18473;SDS011;30265;52.408;13.500;2022-11-15T08:30:05;148.35;;;38.47;;
18473;SDS011;30265;52.408;13.500;2022-11-15T08:40:46;131.88;;;37.97;;
18473;SDS011;30265;52.408;13.500;2022-11-15T08:51:29;105.70;;;30.15;;
18473;SDS011;30265;52.408;13.500;2022-11-15T09:02:14;116.85;;;32.67;;
18473;SDS011;30265;52.408;13.500;2022-11-15T09:12:57;119.82;;;33.83;;
18473;SDS011;30265;52.408;13.500;2022-11-15T09:34:22;100.15;;;30.05;;
18473;SDS011;30265;52.408;13.500;2022-11-15T09:45:10;95.17;;;30.03;;
18473;SDS011;30265;52.408;13.500;2022-11-15T09:56:01;80.88;;;25.73;;
18473;SDS011;30265;52.408;13.500;2022-11-15T10:06:31;75.35;;;24.95;;
18473;SDS011;30265;52.408;13.500;2022-11-15T10:17:06;80.10;;;25.27;;
18473;SDS011;30265;52.408;13.500;2022-11-15T10:27:39;74.20;;;24.45;;
18473;SDS011;30265;52.408;13.500;2022-11-15T10:38:08;67.88;;;22.02;;
18473;SDS011;30265;52.408;13.500;2022-11-15T10:48:32;71.80;;;23.58;;
18473;SDS011;30265;52.408;13.500;2022-11-15T10:58:56;72.43;;;21.67;;
18473;SDS011;30265;52.408;13.500;2022-11-15T11:09:28;67.22;;;22.00;;
18473;SDS011;30265;52.408;13.500;2022-11-15T11:19:56;56.20;;;18.92;;
18473;SDS011;30265;52.408;13.500;2022-11-15T11:30:24;61.25;;;20.10;;
18473;SDS011;30265;52.408;13.500;2022-11-15T11:41:00;57.22;;;20.90;;
18473;SDS011;30265;52.408;13.500;2022-11-15T11:51:32;58.45;;;17.95;;
18473;SDS011;30265;52.408;13.500;2022-11-15T12:01:58;56.90;;;17.88;;
18473;SDS011;30265;52.408;13.500;2022-11-15T12:12:32;52.03;;;19.52;;
18473;SDS011;30265;52.408;13.500;2022-11-15T12:23:01;55.50;;;17.75;;
18473;SDS011;30265;52.408;13.500;2022-11-15T12:33:31;54.03;;;18.35;;
18473;SDS011;30265;52.408;13.500;2022-11-15T12:43:57;56.70;;;17.23;;
18473;SDS011;30265;52.408;13.500;2022-11-15T13:05:52;47.50;;;18.02;;
18473;SDS011;30265;52.408;13.500;2022-11-15T13:16:17;43.95;;;16.67;;
18473;SDS011;30265;52.408;13.500;2022-11-15T13:26:43;47.90;;;16.30;;
18473;SDS011;30265;52.408;13.500;2022-11-15T13:37:08;51.80;;;18.00;;
18473;SDS011;30265;52.408;13.500;2022-11-15T13:47:34;59.78;;;19.73;;
18473;SDS011;30265;52.408;13.500;2022-11-15T13:57:56;47.30;;;16.48;;
18473;SDS011;30265;52.408;13.500;2022-11-15T14:08:23;49.22;;;15.63;;
18473;SDS011;30265;52.408;13.500;2022-11-15T14:18:46;44.90;;;17.17;;
18473;SDS011;30265;52.408;13.500;2022-11-15T14:29:22;47.83;;;16.45;;
18473;SDS011;30265;52.408;13.500;2022-11-15T14:39:45;38.75;;;16.75;;
18473;SDS011;30265;52.408;13.500;2022-11-15T14:50:11;41.45;;;16.98;;
18473;SDS011;30265;52.408;13.500;2022-11-15T15:00:33;47.20;;;16.52;;
18473;SDS011;30265;52.408;13.500;2022-11-15T15:10:57;43.75;;;17.58;;
18473;SDS011;30265;52.408;13.500;2022-11-15T15:21:21;56.05;;;21.02;;
18473;SDS011;30265;52.408;13.500;2022-11-15T15:31:45;46.35;;;17.50;;
18473;SDS011;30265;52.408;13.500;2022-11-15T15:42:08;58.15;;;21.20;;
18473;SDS011;30265;52.408;13.500;2022-11-15T15:52:31;62.33;;;22.05;;
18473;SDS011;30265;52.408;13.500;2022-11-15T16:02:52;73.55;;;25.63;;
18473;SDS011;30265;52.408;13.500;2022-11-15T16:13:15;71.85;;;24.40;;
18473;SDS011;30265;52.408;13.500;2022-11-15T16:23:37;87.97;;;27.10;;
18473;SDS011;30265;52.408;13.500;2022-11-15T16:34:00;86.57;;;28.40;;
18473;SDS011;30265;52.408;13.500;2022-11-15T16:44:22;84.13;;;25.50;;
18473;SDS011;30265;52.408;13.500;2022-11-15T16:54:46;81.18;;;27.17;;
18473;SDS011;30265;52.408;13.500;2022-11-15T17:05:08;115.63;;;36.15;;
18473;SDS011;30265;52.408;13.500;2022-11-15T17:15:37;118.65;;;35.72;;
18473;SDS011;30265;52.408;13.500;2022-11-15T17:26:00;123.65;;;40.65;;
18473;SDS011;30265;52.408;13.500;2022-11-15T17:36:44;134.43;;;43.47;;
18473;SDS011;30265;52.408;13.500;2022-11-15T17:47:08;138.20;;;41.85;;
18473;SDS011;30265;52.408;13.500;2022-11-15T17:57:31;136.80;;;39.58;;
18473;SDS011;30265;52.408;13.500;2022-11-15T18:07:55;146.30;;;46.63;;
18473;SDS011;30265;52.408;13.500;2022-11-15T18:18:19;160.82;;;47.70;;
18473;SDS011;30265;52.408;13.500;2022-11-15T18:28:46;153.70;;;48.35;;
18473;SDS011;30265;52.408;13.500;2022-11-15T18:39:10;219.20;;;61.10;;
18473;SDS011;30265;52.408;13.500;2022-11-15T18:49:35;185.48;;;52.75;;
18473;SDS011;30265;52.408;13.500;2022-11-15T18:59:59;214.65;;;62.40;;
18473;SDS011;30265;52.408;13.500;2022-11-15T19:10:20;209.23;;;61.63;;
18473;SDS011;30265;52.408;13.500;2022-11-15T19:20:43;195.98;;;56.22;;
18473;SDS011;30265;52.408;13.500;2022-11-15T19:31:05;229.07;;;57.97;;
18473;SDS011;30265;52.408;13.500;2022-11-15T19:41:30;312.73;;;61.50;;
18473;SDS011;30265;52.408;13.500;2022-11-15T19:51:55;393.48;;;63.17;;
18473;SDS011;30265;52.408;13.500;2022-11-15T20:02:51;228.73;;;54.27;;
18473;SDS011;30265;52.408;13.500;2022-11-15T20:14:06;222.40;;;47.03;;
18473;SDS011;30265;52.408;13.500;2022-11-15T20:25:09;295.70;;;53.10;;
18473;SDS011;30265;52.408;13.500;2022-11-15T20:35:56;319.13;;;55.00;;
18473;SDS011;30265;52.408;13.500;2022-11-15T20:46:20;367.48;;;56.95;;
18473;SDS011;30265;52.408;13.500;2022-11-15T20:56:45;209.88;;;38.22;;
18473;SDS011;30265;52.408;13.500;2022-11-15T21:07:37;196.93;;;41.88;;
18473;SDS011;30265;52.408;13.500;2022-11-15T21:17:59;245.80;;;42.53;;
18473;SDS011;30265;52.408;13.500;2022-11-15T21:28:22;348.05;;;52.03;;
18473;SDS011;30265;52.408;13.500;2022-11-15T21:38:44;349.05;;;53.38;;
18473;SDS011;30265;52.408;13.500;2022-11-15T21:49:07;343.23;;;51.17;;
18473;SDS011;30265;52.408;13.500;2022-11-15T21:59:29;173.48;;;35.38;;
18473;SDS011;30265;52.408;13.500;2022-11-15T22:09:53;267.10;;;45.17;;
18473;SDS011;30265;52.408;13.500;2022-11-15T22:20:14;150.70;;;29.88;;
18473;SDS011;30265;52.408;13.500;2022-11-15T22:30:58;429.63;;;68.35;;
18473;SDS011;30265;52.408;13.500;2022-11-15T22:41:20;340.80;;;52.03;;
18473;SDS011;30265;52.408;13.500;2022-11-15T22:51:43;367.13;;;58.20;;
18473;SDS011;30265;52.408;13.500;2022-11-15T23:02:06;317.90;;;53.22;;
18473;SDS011;30265;52.408;13.500;2022-11-15T23:12:31;290.05;;;50.90;;
18473;SDS011;30265;52.408;13.500;2022-11-15T23:23:10;251.93;;;42.85;;
18473;SDS011;30265;52.408;13.500;2022-11-15T23:33:35;298.90;;;48.65;;
18473;SDS011;30265;52.408;13.500;2022-11-15T23:44:14;218.48;;;38.85;;
18473;SDS011;30265;52.408;13.500;2022-11-15T23:54:37;316.17;;;46.80;;
